Meteo Giornale » Osservazioni meteo Stati Uniti (USA) » New York City Central Park

ore: 23:51 - Osservazioni Meteo New York City Central Park
Lat. 40° 47' N Lon. 73° 58' W Alt. 47 metri s.l.m.

molto_nuvoloso America/New_York

24 °C

Molto Nuvoloso

Temp. 24 Ore

24 °C

31 °C

Nord

0 Km/h

Dew point 15 °C

Umidità 57 %

Visibilità  10 Km

Il sole sorge alle ore 05:46

Il sole tramonta alle ore 20:18

Data e Ora Cielo e Fenomeni T °C DP °C Um. % Pres. hPa Vis. km Vento km/h
Ieri h: 23:51 molto_nuvoloso Molto Nuvoloso 24 15 57 1014 10 N 0
Ieri h: 22:51 coperto_pioggia Pioggia Debole 25 15 53 1014 10 N 0
Ieri h: 21:51 molto_nuvoloso Molto Nuvoloso 26 14 47 1016 10 N 11.1
Ieri h: 20:51 sereno Sereno 26 15 50 1015 10 N 5.5
Ieri h: 19:51 nuvoloso Nuvoloso 26 14 47 1014 10 N 11.1
Ieri h: 18:51 sereno Sereno 30 16 42 1013 14 O 11.1
Ieri h: 17:51 foschia Foschia 29 17 48 1013 10 S/SO 7.4
Ieri h: 16:51 sereno Sereno 29 17 48 1013 11 N 9.3
Ieri h: 15:51 poco_nuvoloso Poco Nuvoloso 31 18 45 1013 13 N 5.5
Ieri h: 14:51 sereno Sereno 31 18 45 1014 13 N 5.5
Ieri h: 13:51 foschia Foschia 31 18 45 1014 10 N 5.5
Ieri h: 12:51 foschia Foschia 31 17 43 1015 10 N 0
Ieri h: 11:51 foschia Foschia 30 16 42 1015 10 O/SO 9.3
Ieri h: 10:51 foschia Foschia 30 15 40 1015 10 N 0
Ieri h: 09:51 sereno Sereno 28 16 48 1015 11 N 5.5
Ieri h: 08:51 sereno Sereno 27 18 57 1015 11 N 0
Ieri h: 07:51 sereno Sereno 25 18 65 1015 11 N 0
Ieri h: 06:51 foschia Foschia 24 16 60 1015 10 N 0
Ieri h: 04:51 sereno Sereno 24 15 57 1014 13 N 5.5
Ieri h: 03:51 sereno Sereno 24 16 60 1014 11 N 0
Ieri h: 02:51 sereno Sereno 24 15 57 1014 11 N 5.5
Ieri h: 01:51 sereno Sereno 26 16 54 1015 11 N 5.5